VTCC/CNX METAR and TAF weather

Enter ICAO airport designator
Station Type Date Time Source
VTCC METAR 2022/08/13 12:30 UTC NOAA

VTCC 131230Z 22003KT 190V250 9999 BKN035 27/25 Q1008 NOSIG


Station Type Date Time Source
VTCC Decoded METAR 2022/08/13 12:30 UTC NOAA

Chiang Mai, Thailand (VTCC) 18-47N 098-59E 314M
Aug 13, 2022 - 08:30 AM EDT / 2022.08.13 1230 UTC
Wind: from the SW (220 degrees) at 3 MPH (3 KT) (direction variable):0
Visibility: greater than 7 mile(s):0
Sky conditions: mostly cloudy
Temperature: 80 F (27 C)
Dew Point: 77 F (25 C)
Relative Humidity: 88%
Pressure (altimeter): 29.77 in. Hg (1008 hPa)
ob: VTCC 131230Z 22003KT 190V250 9999 BKN035 27/25 Q1008 NOSIG
cycle: 12

Station Type Date Time Source
VTCC TAF 2022/08/13 12:36 UTC NOAA

TAF VTCC 131100Z 1312/1418 25005KT 9999 SCT035
BECMG 1315/1317 35005KT
BECMG 1322/1324 17005KT
TEMPO 1409/1413 -TSRA FEW025CB BKN035
BECMG 1410/1412 25005KT
BECMG 1415/1417 36005KT

Example: see airport list